createdAt,value
2022-11-27T09:51:56.748Z,74.62
2022-11-27T09:55:53.284Z,79.46
2022-11-27T09:59:50.984Z,82.13
2022-11-27T10:03:45.671Z,84.07
2022-11-27T10:07:46.204Z,85.38
2022-11-27T10:11:54.964Z,86.03
2022-11-27T10:16:01.534Z,85.88
2022-11-27T10:20:23.562Z,86.59
2022-11-27T10:24:28.044Z,86.58
2022-11-27T10:28:44.213Z,86.86
2022-11-27T10:36:51.515Z,85.98
2022-11-27T10:40:49.398Z,86.36
2022-11-27T10:44:55.429Z,86.83
2022-11-27T10:48:48.055Z,86.87
2022-11-27T10:52:55.649Z,86.94
2022-11-27T10:57:16.224Z,87.14
2022-11-27T11:01:11.970Z,87.39
2022-11-27T11:05:37.649Z,88.14
2022-11-27T11:09:35.903Z,87.39
2022-11-27T11:13:33.514Z,87.75
2022-11-27T11:17:30.814Z,88.28
2022-11-27T11:21:29.244Z,88.71
2022-11-27T11:25:22.137Z,88.85
2022-11-27T11:29:24.099Z,88.86
2022-11-27T11:33:17.118Z,87.98
2022-11-27T11:37:20.609Z,88.78
2022-11-27T11:41:18.176Z,88.84
2022-11-27T11:45:11.016Z,88.34
2022-11-27T11:49:27.581Z,88.52
2022-11-27T11:53:44.524Z,88.26
2022-11-27T11:57:39.992Z,88.78
2022-11-27T12:01:39.008Z,88.37
2022-11-27T12:05:53.996Z,87.72
2022-11-27T12:10:14.759Z,87.99
2022-11-27T12:14:17.474Z,88.06
2022-11-27T12:18:26.514Z,88.11
2022-11-27T12:22:38.037Z,87.85
2022-11-27T12:26:53.851Z,88.58
2022-11-27T12:30:52.650Z,88.48
2022-11-27T12:35:12.808Z,88.60
2022-11-27T12:39:18.875Z,88.71
2022-11-27T12:43:24.914Z,88.66
2022-11-27T12:47:26.959Z,88.59
2022-11-27T12:51:46.874Z,88.65
2022-11-27T12:55:44.964Z,88.70
2022-11-27T13:00:01.046Z,88.76
2022-11-27T13:04:06.242Z,88.53
2022-11-27T13:08:03.292Z,88.63
2022-11-27T13:11:57.177Z,88.63
2022-11-27T13:16:29.330Z,88.87
2022-11-27T13:20:30.340Z,88.80
2022-11-27T13:24:25.453Z,88.95
2022-11-27T13:28:44.347Z,88.91
2022-11-27T13:32:49.583Z,89.37
2022-11-27T13:36:45.390Z,89.58
2022-11-27T13:40:44.133Z,89.42
2022-11-27T13:44:42.721Z,89.53
2022-11-27T13:48:39.455Z,89.79
2022-11-27T13:52:32.748Z,89.46
2022-11-27T13:56:31.443Z,89.47
2022-11-27T14:00:50.480Z,89.66
2022-11-27T14:04:56.169Z,89.15
2022-11-27T14:09:00.649Z,89.36
2022-11-27T14:12:57.636Z,89.54
2022-11-27T14:16:59.350Z,88.91
2022-11-27T14:20:56.746Z,89.14
2022-11-27T14:24:56.086Z,88.97
2022-11-27T14:28:55.893Z,88.95
2022-11-27T14:32:49.833Z,89.45
2022-11-27T14:36:42.704Z,89.53
2022-11-27T14:40:35.834Z,89.77
2022-11-27T14:44:29.954Z,89.99
2022-11-27T14:48:28.947Z,89.40
2022-11-27T14:52:22.323Z,89.58
2022-11-27T14:56:16.224Z,89.37
2022-11-27T15:00:24.407Z,89.14
2022-11-27T15:04:37.767Z,89.34
2022-11-27T15:08:35.003Z,89.22
2022-11-27T15:12:34.638Z,89.56
2022-11-27T15:16:31.349Z,89.62
2022-11-27T15:20:38.848Z,88.66
2022-11-27T15:24:39.750Z,88.81
2022-11-27T15:28:50.413Z,89.26
2022-11-27T15:32:52.094Z,89.62
2022-11-27T15:36:51.984Z,89.78
2022-11-27T15:40:44.685Z,89.81
2022-11-27T15:44:39.071Z,90.02
2022-11-27T15:48:31.769Z,90.19
2022-11-27T15:52:25.238Z,90.34
2022-11-27T15:56:18.247Z,90.08
2022-11-27T16:00:12.462Z,90.46
2022-11-27T16:04:06.334Z,90.49
2022-11-27T16:07:58.935Z,90.55
2022-11-27T16:11:52.570Z,90.58
2022-11-27T16:15:45.934Z,90.85
2022-11-27T16:19:39.103Z,90.69
2022-11-27T16:23:32.850Z,90.68
2022-11-27T16:27:25.279Z,90.43
2022-11-27T16:31:18.599Z,90.55
2022-11-27T16:35:11.806Z,90.78
2022-11-27T16:39:05.273Z,90.82
2022-11-27T16:42:58.658Z,91.02
2022-11-27T16:46:51.784Z,91.11
2022-11-27T16:50:44.631Z,91.15
2022-11-27T16:54:38.274Z,90.14
2022-11-27T16:58:35.817Z,90.17
2022-11-27T17:02:29.433Z,90.01
2022-11-27T17:06:26.127Z,89.35
2022-11-27T17:10:18.790Z,89.72
2022-11-27T17:14:12.327Z,90.13
2022-11-27T17:18:05.119Z,89.70
2022-11-27T17:22:00.382Z,89.53
2022-11-27T17:25:53.579Z,88.57
2022-11-27T17:29:46.541Z,87.88
2022-11-27T17:33:39.301Z,88.69
2022-11-27T17:37:32.313Z,88.25
2022-11-27T17:41:27.152Z,88.91
2022-11-27T17:45:20.373Z,89.35
2022-11-27T17:49:12.826Z,89.04
2022-11-27T17:53:05.967Z,88.69
2022-11-27T17:56:58.900Z,89.13
2022-11-27T18:00:51.988Z,89.22
2022-11-27T18:04:45.714Z,88.80
2022-11-27T18:08:38.981Z,89.06
2022-11-27T18:12:31.536Z,88.28
2022-11-27T18:16:29.554Z,88.77
2022-11-27T18:20:22.724Z,88.17
2022-11-27T18:24:23.133Z,88.44
2022-11-27T18:28:16.719Z,88.73
2022-11-27T18:32:10.322Z,88.99
2022-11-27T18:36:04.900Z,89.33
2022-11-27T18:39:58.172Z,89.36
2022-11-27T18:43:52.366Z,89.58
2022-11-27T18:47:45.719Z,89.00
2022-11-27T18:51:38.856Z,87.95
2022-11-27T18:55:36.036Z,88.58
2022-11-27T18:59:32.299Z,88.98
2022-11-27T19:03:25.390Z,89.34
2022-11-27T19:07:19.844Z,89.47
2022-11-27T19:11:24.244Z,89.69
2022-11-27T19:15:17.395Z,88.83
2022-11-27T19:19:49.334Z,88.86
2022-11-27T19:23:23.947Z,89.17
2022-11-27T19:27:18.067Z,88.93
2022-11-27T19:31:14.123Z,89.18
2022-11-27T19:35:09.830Z,89.28
2022-11-27T19:39:08.625Z,88.86
2022-11-27T19:43:01.837Z,89.16
2022-11-27T19:46:55.061Z,89.18
2022-11-27T19:50:48.479Z,89.70
2022-11-27T19:54:41.602Z,89.64
2022-11-27T19:58:35.213Z,90.45
2022-11-27T20:02:31.465Z,90.33
2022-11-27T20:06:27.058Z,89.67
2022-11-27T20:10:22.613Z,89.61
2022-11-27T20:14:16.491Z,89.38
2022-11-27T20:18:11.003Z,89.34
2022-11-27T20:22:04.860Z,89.46
2022-11-27T20:25:58.370Z,88.87
2022-11-27T20:29:55.221Z,89.01
2022-11-27T20:33:49.315Z,88.79
2022-11-27T20:37:44.469Z,88.58
2022-11-27T20:41:42.404Z,88.96
2022-11-27T20:45:40.233Z,89.63
2022-11-27T20:49:35.911Z,89.37
2022-11-27T20:53:29.848Z,89.44
2022-11-27T20:57:23.142Z,90.06
2022-11-27T21:01:19.536Z,89.95
2022-11-27T21:05:12.520Z,89.92
2022-11-27T21:09:08.168Z,90.32
2022-11-27T21:13:01.757Z,89.48
2022-11-27T21:16:58.023Z,89.90
2022-11-27T21:20:55.192Z,89.63
2022-11-27T21:24:52.281Z,90.04
2022-11-27T21:28:46.473Z,90.36
2022-11-27T21:32:39.673Z,90.39
2022-11-27T21:36:36.528Z,90.45
2022-11-27T21:40:29.718Z,90.33
2022-11-27T21:44:24.643Z,89.34
2022-11-27T21:48:21.183Z,89.84
2022-11-27T21:52:14.498Z,89.68
2022-11-27T21:56:08.388Z,89.90
2022-11-27T22:04:26.748Z,90.31
2022-11-27T22:08:37.285Z,89.76
2022-11-27T22:12:29.698Z,89.04
2022-11-27T22:16:25.146Z,89.40
2022-11-27T22:20:18.026Z,89.38
2022-11-27T22:24:16.742Z,89.69
2022-11-27T22:28:11.239Z,89.46
2022-11-27T22:32:04.068Z,89.52
2022-11-27T22:35:56.402Z,89.34
2022-11-27T22:39:48.952Z,89.12
2022-11-27T22:43:42.343Z,89.30
2022-11-27T22:47:34.766Z,89.60
2022-11-27T22:51:29.437Z,88.55
2022-11-27T22:55:22.156Z,89.43
2022-11-27T22:59:32.751Z,89.49
2022-11-27T23:03:26.667Z,89.42
2022-11-27T23:07:25.020Z,89.21
2022-11-27T23:11:26.134Z,89.42
2022-11-27T23:15:18.914Z,89.59
2022-11-27T23:19:11.940Z,89.46
2022-11-27T23:23:04.480Z,89.25
2022-11-27T23:26:57.143Z,88.88
2022-11-27T23:31:03.138Z,89.39
2022-11-27T23:35:02.534Z,88.62
2022-11-27T23:38:55.078Z,88.67
2022-11-27T23:42:47.702Z,89.15
2022-11-27T23:46:40.865Z,89.58
2022-11-27T23:50:33.395Z,89.86
2022-11-27T23:54:26.083Z,89.89
2022-11-27T23:58:18.514Z,90.43
